Portada
METAR-TAF:

METAR-TAF

Aeroports :

Marshfield Municipal Airport

Marshfield, Wisconsin, Estats Units d'Amèrica

latitud: 44-38-17N, longitud: 090-11-15W, altitud: 389 m

Observació

L'informe es va fer fa 1 hora i 5 minuts, a les 05:54 UTC
Vent 15 kt del Nord/Nord-Oest amb ràfegues de 29 kt
Temperatura 3°C
Humitat 81%
Pressió 1014 hPa
Visibilitat: 16.1 km
Escasses núvols a una alçada de 3200 ft
Cel ennuvolat a una alçada de 6000 ft

METAR: KMFI 300554Z AUTO 33015G29KT 10SM FEW032 BKN060 03/00 A2994 RMK AO2 PK WND 34029/0552 SLP149 60000 T00280000 10028 20022 400500022 51025

Hora: 01:59 (06:59 UTC)


TAF: manca

Observacions i pronòstics meteorològics de més de 4000 aeroports (METAR i TAF).

Les estacions disponibles són els punts grocs i vermells al mapa.

Posi el ratolí al punt desitjat per veure el nom de l'estació.

Feu clic per veure les observacions i els pronòstics meteorològics.

Per canviar el mapa: feu clic els botons verds amb una creu de color negre per apropar; al botó verd amb un guió per allunyar la imatge; o en les fletxes verdes per a mapes adjacents.


METAR-TAF: